Time;durP1;ratioP1;P1;durP2;ratioP2;P2;SDS_P1;SDS_P2;PMS_P1;PMS_P2;Temp;Humidity;BMP_temperature;BMP_pressure;BME280_temperature;BME280_humidity;BME280_pressure;Samples;Min_cycle;Max_cycle;Signal;HPM_P1;HPM_P2
2023/05/31 00:00:56;;;;;;;10.23;2.40;;;14.10;55.40;;;;;;5012298;28;20438;-67
2023/05/31 00:03:24;;;;;;;3.83;2.60;;;14.00;55.40;;;;;;5011755;28;20524;-67
2023/05/31 00:05:52;;;;;;;6.00;2.67;;;14.00;55.20;;;;;;5011992;28;20434;-67
2023/05/31 00:08:20;;;;;;;5.70;2.37;;;14.00;55.40;;;;;;5012038;28;20527;-68
2023/05/31 00:10:48;;;;;;;6.87;2.43;;;14.00;56.00;;;;;;5012228;28;20541;-67
2023/05/31 00:13:16;;;;;;;9.40;2.57;;;13.90;57.60;;;;;;5011891;28;20488;-67
2023/05/31 00:15:44;;;;;;;3.90;2.67;;;13.70;56.90;;;;;;5012085;28;20452;-67
2023/05/31 00:18:13;;;;;;;6.03;2.30;;;13.70;55.80;;;;;;5012076;28;20469;-67
2023/05/31 00:20:41;;;;;;;3.43;2.33;;;13.60;57.20;;;;;;5011882;28;20445;-68
2023/05/31 00:23:10;;;;;;;5.83;2.13;;;13.70;56.70;;;;;;5011613;28;20521;-68
2023/05/31 00:25:38;;;;;;;5.47;2.23;;;13.70;55.80;;;;;;5011950;28;20470;-68
2023/05/31 00:28:06;;;;;;;4.13;2.20;;;13.70;56.90;;;;;;5012221;28;20473;-68
2023/05/31 00:30:34;;;;;;;5.90;1.93;;;13.60;57.30;;;;;;5012396;28;20549;-67
2023/05/31 00:33:02;;;;;;;5.63;2.27;;;13.50;59.30;;;;;;5011698;28;20539;-67
2023/05/31 00:35:31;;;;;;;3.40;1.87;;;13.50;56.70;;;;;;5011906;28;20450;-67
2023/05/31 00:38:00;;;;;;;3.60;2.17;;;13.40;56.00;;;;;;5012126;28;21012;-68
2023/05/31 00:40:28;;;;;;;5.40;2.27;;;13.50;56.80;;;;;;5012101;28;20527;-68
2023/05/31 00:42:56;;;;;;;4.20;2.10;;;13.50;56.30;;;;;;5011508;28;20531;-68
2023/05/31 00:45:24;;;;;;;3.73;2.20;;;13.50;55.90;;;;;;5010922;28;20496;-67
2023/05/31 00:47:52;;;;;;;5.37;2.43;;;13.60;56.10;;;;;;5010713;28;21007;-68
2023/05/31 00:50:20;;;;;;;3.60;2.43;;;13.50;55.60;;;;;;5011205;28;20544;-68
2023/05/31 00:52:54;;;;;;;4.20;2.57;;;13.50;56.50;;;;;;5010229;28;20525;-68
2023/05/31 00:55:22;;;;;;;4.30;2.67;;;13.60;56.90;;;;;;5010818;28;20552;-68
2023/05/31 00:57:52;;;;;;;4.20;2.73;;;13.50;57.20;;;;;;5010816;28;20540;-68
2023/05/31 01:00:20;;;;;;;4.87;2.97;;;13.40;58.30;;;;;;5010959;28;20445;-67
2023/05/31 01:02:50;;;;;;;4.30;3.10;;;13.40;57.90;;;;;;5010515;28;20445;-67
2023/05/31 01:05:18;;;;;;;5.37;2.40;;;13.30;57.50;;;;;;5010938;28;20426;-68
2023/05/31 01:07:46;;;;;;;3.80;2.50;;;13.30;56.70;;;;;;5010505;28;20464;-68
2023/05/31 01:10:16;;;;;;;2.73;1.97;;;13.20;57.60;;;;;;5010659;28;20527;-66
2023/05/31 01:12:53;;;;;;;2.70;2.07;;;13.20;59.40;;;;;;5010296;28;20441;-67
2023/05/31 01:15:25;;;;;;;2.53;1.83;;;13.10;59.60;;;;;;5010561;28;20500;-67
2023/05/31 01:18:00;;;;;;;5.13;2.13;;;13.10;60.30;;;;;;5010361;28;21061;-67
2023/05/31 01:20:33;;;;;;;3.93;1.90;;;13.10;62.10;;;;;;5010328;28;20436;-68
2023/05/31 01:23:12;;;;;;;4.07;2.10;;;13.00;61.30;;;;;;5010056;28;20948;-67
2023/05/31 01:26:06;;;;;;;4.00;2.10;;;12.90;63.60;;;;;;5010466;28;20440;-67
2023/05/31 01:28:38;;;;;;;2.87;2.47;;;12.80;63.30;;;;;;5010546;28;20478;-67
2023/05/31 01:31:09;;;;;;;3.40;2.13;;;12.60;65.20;;;;;;5010121;28;20437;-68
2023/05/31 01:33:38;;;;;;;3.93;1.87;;;12.50;65.80;;;;;;5010109;28;20505;-67
2023/05/31 01:36:06;;;;;;;2.20;1.93;;;12.40;60.60;;;;;;5010119;28;20504;-68
2023/05/31 01:38:34;;;;;;;5.20;2.70;;;12.50;65.90;;;;;;5010270;28;20857;-68
2023/05/31 01:41:06;;;;;;;4.53;2.60;;;12.50;66.20;;;;;;5010092;28;20500;-67
2023/05/31 01:43:37;;;;;;;5.43;2.20;;;12.50;64.20;;;;;;5009996;28;20506;-67
2023/05/31 01:46:05;;;;;;;6.67;2.57;;;12.40;66.90;;;;;;5010303;28;20537;-67
2023/05/31 01:48:34;;;;;;;3.53;1.73;;;12.50;67.40;;;;;;5010339;28;20462;-67
2023/05/31 01:51:03;;;;;;;4.57;2.33;;;12.40;68.10;;;;;;5009946;28;20536;-67
2023/05/31 01:53:31;;;;;;;4.03;2.30;;;12.30;67.40;;;;;;5009830;28;20507;-67
2023/05/31 01:55:59;;;;;;;3.60;2.67;;;12.20;67.50;;;;;;5010365;28;20452;-67
2023/05/31 01:58:28;;;;;;;3.47;2.30;;;12.20;67.60;;;;;;5010397;28;20926;-67
2023/05/31 02:00:59;;;;;;;5.00;2.10;;;12.20;65.30;;;;;;5009885;28;20583;-67
2023/05/31 02:03:28;;;;;;;3.47;2.47;;;12.10;65.80;;;;;;5009010;28;20448;-67
2023/05/31 02:05:56;;;;;;;4.37;2.27;;;12.10;66.00;;;;;;5009830;28;20445;-67
2023/05/31 02:08:25;;;;;;;2.60;2.30;;;12.10;65.60;;;;;;5009584;28;20468;-68
2023/05/31 02:10:54;;;;;;;5.43;2.53;;;12.00;65.50;;;;;;5010185;28;20500;-67
2023/05/31 02:13:26;;;;;;;3.90;2.43;;;12.00;66.50;;;;;;5009470;28;20529;-67
2023/05/31 02:15:55;;;;;;;3.70;2.10;;;12.00;65.30;;;;;;5009974;28;20534;-67
2023/05/31 02:18:26;;;;;;;2.90;2.40;;;11.90;65.70;;;;;;5009717;28;21153;-67
2023/05/31 02:20:54;;;;;;;6.70;2.30;;;11.90;67.00;;;;;;5009849;28;20438;-67
2023/05/31 02:23:22;;;;;;;3.60;2.33;;;11.90;66.20;;;;;;5009658;28;20819;-68
2023/05/31 02:25:51;;;;;;;5.33;2.67;;;12.00;64.90;;;;;;5010106;28;20466;-68
2023/05/31 02:28:19;;;;;;;5.00;2.20;;;11.80;65.30;;;;;;5009638;28;20471;-68
2023/05/31 02:30:54;;;;;;;5.40;2.40;;;11.80;64.60;;;;;;5009701;28;20506;-68
2023/05/31 02:33:24;;;;;;;4.40;2.67;;;11.70;67.90;;;;;;5009251;28;20441;-68
2023/05/31 02:35:53;;;;;;;8.93;2.40;;;11.70;66.30;;;;;;5009544;28;20565;-68
2023/05/31 02:38:21;;;;;;;3.60;2.40;;;11.60;66.30;;;;;;5009255;28;20510;-68
2023/05/31 02:40:49;;;;;;;5.37;3.00;;;11.60;66.70;;;;;;5009609;28;20454;-68
2023/05/31 02:43:17;;;;;;;3.10;2.03;;;11.40;67.90;;;;;;5009266;28;20446;-67
2023/05/31 02:45:45;;;;;;;2.80;1.93;;;11.40;68.20;;;;;;5009465;28;20444;-68
2023/05/31 02:48:13;;;;;;;3.03;2.40;;;11.40;68.20;;;;;;5009541;28;20498;-67
2023/05/31 02:50:42;;;;;;;2.77;2.47;;;11.30;73.40;;;;;;5009427;28;20855;-68
2023/05/31 02:53:10;;;;;;;4.40;2.60;;;11.30;76.40;;;;;;5009085;28;20530;-68
2023/05/31 02:55:39;;;;;;;4.97;2.47;;;11.10;77.90;;;;;;5009301;28;20518;-68
2023/05/31 02:58:07;;;;;;;2.80;2.30;;;11.10;78.90;;;;;;5009484;28;20493;-68
2023/05/31 03:00:35;;;;;;;3.70;2.23;;;10.90;76.80;;;;;;5009238;28;20538;-68
2023/05/31 03:03:03;;;;;;;3.50;2.77;;;10.80;79.20;;;;;;5009239;28;20504;-68
2023/05/31 03:05:31;;;;;;;4.60;2.20;;;10.80;78.60;;;;;;5012959;28;20445;-68
2023/05/31 03:08:00;;;;;;;3.83;2.30;;;10.80;78.30;;;;;;5012796;28;20460;-68
2023/05/31 03:10:28;;;;;;;4.17;2.00;;;10.80;78.80;;;;;;5012740;28;20449;-68
2023/05/31 03:12:56;;;;;;;4.30;2.50;;;10.80;79.70;;;;;;5012396;28;20442;-68
2023/05/31 03:15:24;;;;;;;2.43;2.00;;;10.80;80.20;;;;;;5012493;28;20586;-67
2023/05/31 03:17:52;;;;;;;5.03;2.60;;;10.70;81.90;;;;;;5012589;28;20945;-68
2023/05/31 03:20:20;;;;;;;3.40;2.20;;;10.60;83.80;;;;;;5012546;28;20455;-68
2023/05/31 03:22:48;;;;;;;3.43;2.17;;;10.50;84.70;;;;;;5012207;28;20450;-68
2023/05/31 03:25:18;;;;;;;4.03;2.63;;;10.40;85.40;;;;;;5012594;28;20511;-68
2023/05/31 03:27:46;;;;;;;5.57;2.30;;;10.30;86.80;;;;;;5012195;28;20456;-68
2023/05/31 03:30:14;;;;;;;4.70;2.67;;;10.20;84.10;;;;;;5012502;28;20450;-68
2023/05/31 03:32:42;;;;;;;3.63;2.10;;;10.30;82.70;;;;;;5012520;28;20467;-68
2023/05/31 03:35:11;;;;;;;5.50;2.53;;;10.30;84.60;;;;;;5012319;28;21062;-68
2023/05/31 03:37:39;;;;;;;5.00;2.50;;;10.40;86.80;;;;;;5012213;28;20478;-68
2023/05/31 03:40:08;;;;;;;3.87;2.50;;;10.50;85.10;;;;;;5012140;28;20557;-68
2023/05/31 03:42:38;;;;;;;3.30;2.33;;;10.60;86.70;;;;;;5012118;28;20484;-68
2023/05/31 03:45:07;;;;;;;4.93;2.90;;;10.60;86.40;;;;;;5012216;28;20444;-68
2023/05/31 03:47:35;;;;;;;3.07;2.33;;;10.40;86.90;;;;;;5012423;28;20450;-68
2023/05/31 03:50:05;;;;;;;3.17;2.80;;;10.40;86.50;;;;;;5012026;28;20466;-68
2023/05/31 03:52:33;;;;;;;4.90;3.10;;;10.60;86.60;;;;;;5011510;28;20440;-68
2023/05/31 03:55:01;;;;;;;5.10;2.73;;;10.70;86.10;;;;;;5012289;28;20474;-68
2023/05/31 03:57:29;;;;;;;3.67;2.40;;;10.70;88.10;;;;;;5012322;28;20438;-68
2023/05/31 03:59:59;;;;;;;3.87;2.20;;;10.80;79.00;;;;;;5011987;28;20494;-68
2023/05/31 04:02:28;;;;;;;5.03;2.37;;;11.10;75.10;;;;;;5012019;28;20449;-68
2023/05/31 04:04:56;;;;;;;3.30;2.30;;;11.40;73.50;;;;;;5011891;28;20476;-67
2023/05/31 04:07:24;;;;;;;4.20;2.80;;;11.70;71.20;;;;;;5011888;28;20442;-68
2023/05/31 04:09:52;;;;;;;4.83;2.07;;;11.90;70.50;;;;;;5011882;28;20466;-67
2023/05/31 04:12:20;;;;;;;3.10;2.30;;;12.00;75.50;;;;;;5012107;28;20502;-68
2023/05/31 04:14:48;;;;;;;3.10;2.03;;;11.90;80.20;;;;;;5011725;28;20673;-68
2023/05/31 04:17:18;;;;;;;4.30;1.97;;;11.90;72.40;;;;;;5012208;28;20876;-68
2023/05/31 04:19:46;;;;;;;3.70;2.27;;;12.10;70.30;;;;;;5011718;28;20545;-68
2023/05/31 04:22:14;;;;;;;10.07;2.93;;;12.20;68.80;;;;;;5011990;28;20973;-68
2023/05/31 04:24:42;;;;;;;3.63;2.60;;;12.40;67.80;;;;;;5011464;28;20447;-68
2023/05/31 04:27:10;;;;;;;5.90;2.70;;;12.50;68.00;;;;;;5011626;28;21082;-68
2023/05/31 04:29:38;;;;;;;3.30;1.80;;;12.60;67.00;;;;;;5011413;28;20464;-68
2023/05/31 04:32:07;;;;;;;3.03;1.90;;;12.80;65.80;;;;;;5011595;28;20443;-68
2023/05/31 04:34:37;;;;;;;2.67;2.33;;;12.90;65.90;;;;;;5011418;28;20481;-68
2023/05/31 04:37:05;;;;;;;5.00;2.50;;;13.00;66.00;;;;;;5011302;28;20515;-68
2023/05/31 04:39:34;;;;;;;3.60;2.37;;;13.00;66.00;;;;;;5011565;28;20556;-68
2023/05/31 04:42:03;;;;;;;3.00;2.30;;;13.00;65.00;;;;;;5011337;28;20476;-68
2023/05/31 04:44:31;;;;;;;6.50;3.77;;;13.20;65.50;;;;;;5010995;28;20823;-68
2023/05/31 04:46:59;;;;;;;2.87;2.43;;;13.20;64.40;;;;;;5010930;28;20529;-67
2023/05/31 04:49:27;;;;;;;3.60;2.23;;;13.50;64.20;;;;;;5010925;28;20473;-67
2023/05/31 04:52:01;;;;;;;4.07;2.07;;;13.50;64.50;;;;;;5011112;28;20483;-67
2023/05/31 04:54:30;;;;;;;4.90;2.47;;;13.60;63.40;;;;;;5011082;28;20556;-67
2023/05/31 04:56:59;;;;;;;3.90;2.17;;;13.70;63.10;;;;;;5010838;28;20484;-68
2023/05/31 04:59:27;;;;;;;6.63;2.90;;;13.70;63.70;;;;;;5010606;28;20470;-68
2023/05/31 05:01:55;;;;;;;2.97;2.20;;;13.80;63.80;;;;;;5010949;28;20446;-68
2023/05/31 05:04:23;;;;;;;4.47;2.27;;;13.90;64.30;;;;;;5010361;28;20505;-68
2023/05/31 05:06:51;;;;;;;3.97;2.27;;;13.90;63.00;;;;;;5010792;28;20450;-68
2023/05/31 05:09:21;;;;;;;3.97;2.30;;;14.00;62.70;;;;;;5010380;28;20894;-68
2023/05/31 05:11:49;;;;;;;4.50;4.07;;;14.00;63.40;;;;;;5010331;28;20931;-69
2023/05/31 05:14:17;;;;;;;2.60;2.40;;;14.10;62.40;;;;;;5010367;28;20518;-67
2023/05/31 05:16:45;;;;;;;2.90;2.10;;;14.20;63.20;;;;;;5010508;28;20477;-67
2023/05/31 05:19:13;;;;;;;3.50;2.20;;;14.30;62.10;;;;;;5010442;28;20493;-67
2023/05/31 05:21:41;;;;;;;4.70;2.43;;;14.30;61.40;;;;;;5010573;28;20861;-67
2023/05/31 05:24:09;;;;;;;2.97;1.80;;;14.40;60.20;;;;;;5010151;28;20530;-67
2023/05/31 05:26:38;;;;;;;4.07;2.47;;;14.60;60.60;;;;;;5009968;28;20445;-67
2023/05/31 05:29:06;;;;;;;4.50;2.20;;;14.60;60.20;;;;;;5010527;28;20473;-68
2023/05/31 05:31:38;;;;;;;5.23;2.40;;;14.70;60.10;;;;;;5010394;28;20476;-68
2023/05/31 05:34:06;;;;;;;3.23;2.40;;;14.80;59.90;;;;;;5010180;28;20496;-68
2023/05/31 05:36:34;;;;;;;3.70;2.00;;;14.90;59.30;;;;;;5010225;28;20480;-68
2023/05/31 05:39:05;;;;;;;6.73;2.30;;;15.00;58.60;;;;;;5010182;28;21041;-67
2023/05/31 05:41:33;;;;;;;4.30;2.60;;;15.10;58.20;;;;;;5010630;28;20434;-67
2023/05/31 05:44:03;;;;;;;3.17;2.30;;;15.10;58.40;;;;;;5010147;28;20446;-67
2023/05/31 05:46:31;;;;;;;3.30;2.13;;;15.20;58.90;;;;;;5010173;28;20449;-67
2023/05/31 05:48:59;;;;;;;3.60;2.23;;;15.30;58.20;;;;;;5010409;28;20552;-67
2023/05/31 05:51:27;;;;;;;3.03;2.40;;;15.40;57.10;;;;;;5010050;28;20541;-68
2023/05/31 05:53:55;;;;;;;3.10;2.60;;;15.50;56.30;;;;;;5009825;28;20473;-68
2023/05/31 05:56:23;;;;;;;3.60;2.67;;;15.60;56.60;;;;;;5010192;28;20540;-68
2023/05/31 05:58:51;;;;;;;3.20;2.10;;;15.60;55.70;;;;;;5010110;28;20556;-68
2023/05/31 06:01:22;;;;;;;3.27;2.30;;;15.70;56.20;;;;;;5009927;28;20944;-68
2023/05/31 06:03:50;;;;;;;3.20;2.57;;;15.70;56.10;;;;;;5009686;28;20490;-68
2023/05/31 06:06:19;;;;;;;3.57;2.40;;;15.70;57.40;;;;;;5010289;28;20815;-68
2023/05/31 06:08:47;;;;;;;2.13;2.03;;;15.80;57.50;;;;;;5009893;28;20465;-68
2023/05/31 06:11:18;;;;;;;3.73;2.83;;;15.90;55.30;;;;;;5010044;28;20443;-67
2023/05/31 06:13:46;;;;;;;4.47;2.57;;;15.90;57.40;;;;;;5009654;28;20480;-68
2023/05/31 06:16:14;;;;;;;3.10;2.30;;;16.00;57.50;;;;;;5009630;28;20498;-68
2023/05/31 06:18:44;;;;;;;6.67;2.03;;;16.10;55.40;;;;;;5009550;28;20489;-67
2023/05/31 06:21:12;;;;;;;4.63;2.50;;;16.20;56.60;;;;;;5010034;28;20875;-68
2023/05/31 06:23:40;;;;;;;3.50;2.60;;;16.30;56.40;;;;;;5009530;28;20998;-68
2023/05/31 06:26:08;;;;;;;3.73;2.20;;;16.40;56.20;;;;;;5010100;28;20445;-67
2023/05/31 06:28:36;;;;;;;6.50;2.27;;;16.50;56.80;;;;;;5009659;28;20987;-68
2023/05/31 06:31:05;;;;;;;5.87;2.27;;;16.60;56.10;;;;;;5009896;28;20452;-68
2023/05/31 06:33:33;;;;;;;2.93;2.40;;;16.70;55.90;;;;;;5009890;28;20446;-68
2023/05/31 06:36:02;;;;;;;4.03;2.33;;;16.80;54.60;;;;;;5010016;28;20888;-68
2023/05/31 06:38:30;;;;;;;4.67;2.50;;;16.90;55.20;;;;;;5012266;28;20583;-67
2023/05/31 06:40:58;;;;;;;2.60;2.30;;;17.10;55.80;;;;;;5013855;28;20434;-67
2023/05/31 06:43:26;;;;;;;3.57;2.87;;;17.20;54.50;;;;;;5013396;28;20449;-67
2023/05/31 06:45:54;;;;;;;3.03;2.53;;;17.30;55.00;;;;;;5013760;28;20894;-67
2023/05/31 06:48:22;;;;;;;5.73;2.97;;;17.40;54.00;;;;;;5013694;28;20472;-67
2023/05/31 06:50:50;;;;;;;3.90;2.60;;;17.50;53.30;;;;;;5013841;28;20437;-67
2023/05/31 06:53:19;;;;;;;4.53;2.00;;;17.60;54.00;;;;;;5013122;28;20449;-67
2023/05/31 06:55:47;;;;;;;3.73;2.33;;;17.70;53.00;;;;;;5013496;28;20438;-67
2023/05/31 06:58:18;;;;;;;4.80;3.10;;;17.80;53.50;;;;;;5013161;28;20485;-67
2023/05/31 07:00:46;;;;;;;2.57;2.00;;;17.80;52.50;;;;;;5013349;28;20445;-68
2023/05/31 07:03:14;;;;;;;6.13;2.10;;;18.00;52.70;;;;;;5013097;28;20504;-68
2023/05/31 07:05:43;;;;;;;5.07;2.93;;;18.10;54.10;;;;;;5013627;28;20812;-67
2023/05/31 07:08:14;;;;;;;6.13;2.40;;;18.20;50.90;;;;;;5013943;28;20708;-67
2023/05/31 07:10:45;;;;;;;5.40;2.50;;;18.30;52.70;;;;;;5013974;28;20430;-68
2023/05/31 07:13:13;;;;;;;7.00;2.60;;;18.40;52.90;;;;;;5013151;28;20445;-68
2023/05/31 07:15:41;;;;;;;3.00;2.70;;;18.60;52.40;;;;;;5013374;28;20453;-68
2023/05/31 07:18:09;;;;;;;3.30;2.80;;;18.60;50.40;;;;;;5012789;28;20895;-67
2023/05/31 07:20:37;;;;;;;3.60;2.77;;;18.60;52.20;;;;;;5012811;28;20445;-68
2023/05/31 07:23:05;;;;;;;4.00;2.87;;;18.70;52.50;;;;;;5012190;28;20441;-69
2023/05/31 07:25:33;;;;;;;3.53;2.43;;;18.90;51.20;;;;;;5013125;28;20484;-66
2023/05/31 07:28:02;;;;;;;4.37;3.10;;;19.00;49.90;;;;;;5012658;28;21112;-67
2023/05/31 07:30:30;;;;;;;7.80;2.53;;;19.10;49.10;;;;;;5012743;28;20446;-67
2023/05/31 07:32:58;;;;;;;4.57;3.30;;;19.20;50.50;;;;;;5012324;28;20438;-67
2023/05/31 07:35:26;;;;;;;8.30;3.33;;;19.30;50.40;;;;;;5012625;28;20446;-67
2023/05/31 07:37:54;;;;;;;3.10;2.50;;;19.40;48.20;;;;;;5012170;28;21073;-66
2023/05/31 07:40:22;;;;;;;3.77;2.63;;;19.50;49.20;;;;;;5012644;28;20469;-68
2023/05/31 07:42:54;;;;;;;4.00;2.40;;;19.60;47.30;;;;;;5012013;28;20480;-68
2023/05/31 07:45:24;;;;;;;6.03;2.73;;;19.60;49.00;;;;;;5012496;28;20441;-68
2023/05/31 07:47:52;;;;;;;4.27;2.80;;;19.80;49.30;;;;;;5012287;28;20477;-68
2023/05/31 07:50:20;;;;;;;5.10;2.20;;;19.80;48.70;;;;;;5011334;28;20456;-68
2023/05/31 07:52:49;;;;;;;4.30;2.50;;;19.90;49.70;;;;;;5012040;28;20472;-68
2023/05/31 07:55:17;;;;;;;2.90;2.37;;;20.10;48.20;;;;;;5012274;28;20442;-68
2023/05/31 07:57:47;;;;;;;5.33;2.60;;;20.20;47.40;;;;;;5012108;28;20485;-68
2023/05/31 08:00:15;;;;;;;7.83;3.40;;;20.40;48.30;;;;;;5012154;28;20500;-67
2023/05/31 08:02:45;;;;;;;2.83;2.50;;;20.40;47.20;;;;;;5011634;28;20620;-68
2023/05/31 08:05:14;;;;;;;4.27;2.50;;;20.50;46.90;;;;;;5011870;28;21031;-68
2023/05/31 08:07:43;;;;;;;5.20;2.53;;;20.60;46.30;;;;;;5012171;28;20435;-68
2023/05/31 08:10:11;;;;;;;3.93;2.67;;;20.60;46.60;;;;;;5011971;28;20500;-68
2023/05/31 08:12:41;;;;;;;3.37;2.83;;;20.70;48.00;;;;;;5011563;28;20450;-68
2023/05/31 08:15:11;;;;;;;6.33;2.87;;;20.80;47.50;;;;;;5011837;28;20500;-66
2023/05/31 08:17:38;;;;;;;6.07;2.50;;;20.90;48.30;;;;;;5011821;28;20477;-66
2023/05/31 08:20:10;;;;;;;3.27;2.97;;;21.10;47.90;;;;;;5011961;28;20466;-66
2023/05/31 08:22:38;;;;;;;7.43;3.20;;;21.20;47.00;;;;;;5011380;28;20553;-66
2023/05/31 08:25:07;;;;;;;6.00;3.53;;;21.30;46.20;;;;;;5011734;28;20493;-66
2023/05/31 08:27:37;;;;;;;9.20;2.70;;;21.30;46.50;;;;;;5011404;28;20438;-66
2023/05/31 08:30:06;;;;;;;2.50;2.30;;;21.40;46.10;;;;;;5011652;28;20549;-68
2023/05/31 08:32:37;;;;;;;4.27;2.47;;;21.40;45.50;;;;;;5011431;28;20450;-67
2023/05/31 08:35:08;;;;;;;6.23;3.10;;;21.50;46.30;;;;;;5011627;28;20457;-66
2023/05/31 08:37:37;;;;;;;4.07;3.10;;;21.50;44.30;;;;;;5011399;28;20493;-67
2023/05/31 08:40:06;;;;;;;6.00;3.10;;;21.60;47.10;;;;;;5011328;28;20837;-67
2023/05/31 08:42:40;;;;;;;4.53;2.33;;;21.70;45.70;;;;;;5011294;28;20445;-67
2023/05/31 08:45:10;;;;;;;6.93;3.53;;;21.70;44.20;;;;;;5011577;28;20537;-67
2023/05/31 08:47:43;;;;;;;3.67;2.43;;;21.60;45.20;;;;;;5011457;28;20434;-67
2023/05/31 08:50:14;;;;;;;4.67;2.90;;;21.70;45.50;;;;;;5011464;28;20438;-66
2023/05/31 08:52:43;;;;;;;3.33;2.53;;;21.80;44.90;;;;;;5011082;28;20438;-67
2023/05/31 08:55:12;;;;;;;3.87;2.87;;;21.90;44.30;;;;;;5011763;28;20461;-67
2023/05/31 08:57:41;;;;;;;5.50;2.83;;;22.00;46.80;;;;;;5011691;28;20532;-67
2023/05/31 09:00:10;;;;;;;3.37;2.77;;;22.10;45.70;;;;;;5011302;28;20458;-67
2023/05/31 09:02:39;;;;;;;5.30;3.37;;;22.30;44.40;;;;;;5010040;28;21087;-67
2023/05/31 09:05:10;;;;;;;3.40;2.90;;;22.40;43.90;;;;;;5010937;28;20477;-67
2023/05/31 09:07:40;;;;;;;6.60;3.23;;;22.30;43.70;;;;;;5011202;28;20521;-68
2023/05/31 09:10:10;;;;;;;3.83;2.80;;;22.40;42.80;;;;;;5011100;28;20478;-67
2023/05/31 09:12:38;;;;;;;5.33;2.50;;;22.50;43.20;;;;;;5010858;28;20434;-67
2023/05/31 09:15:08;;;;;;;5.93;2.93;;;22.60;43.10;;;;;;5011085;28;20821;-66
2023/05/31 09:17:36;;;;;;;8.40;3.70;;;22.80;42.30;;;;;;5011016;28;20479;-67
2023/05/31 09:20:05;;;;;;;6.40;3.10;;;22.90;43.10;;;;;;5011028;28;20504;-67
2023/05/31 09:22:34;;;;;;;6.13;3.40;;;22.90;43.00;;;;;;5011085;28;20437;-67
2023/05/31 09:25:04;;;;;;;4.97;2.53;;;22.90;43.20;;;;;;5010933;28;20470;-67
2023/05/31 09:27:37;;;;;;;8.13;3.40;;;23.00;43.30;;;;;;5011118;28;20528;-67
2023/05/31 09:30:08;;;;;;;4.70;2.87;;;23.20;42.90;;;;;;5010744;28;20462;-66
2023/05/31 09:32:36;;;;;;;4.50;2.67;;;23.40;42.90;;;;;;5010800;28;20481;-66
2023/05/31 09:35:15;;;;;;;4.00;3.20;;;23.50;40.40;;;;;;5010957;28;20446;-66
2023/05/31 09:37:44;;;;;;;3.70;2.60;;;23.60;40.20;;;;;;5010701;28;20449;-67
2023/05/31 09:40:15;;;;;;;5.17;3.10;;;23.70;39.50;;;;;;5010972;28;20443;-67
2023/05/31 09:42:50;;;;;;;5.93;3.27;;;23.70;41.70;;;;;;5010600;28;20446;-67
2023/05/31 09:45:18;;;;;;;5.73;3.33;;;23.90;41.50;;;;;;5010776;28;20534;-67
2023/05/31 09:47:47;;;;;;;5.33;2.80;;;24.10;42.30;;;;;;5010628;28;20483;-67
2023/05/31 09:50:17;;;;;;;6.53;3.13;;;24.40;42.50;;;;;;5010793;28;20861;-67
2023/05/31 09:52:46;;;;;;;4.80;3.03;;;24.80;42.20;;;;;;5010240;28;20452;-66
2023/05/31 09:55:17;;;;;;;4.80;2.90;;;25.20;40.20;;;;;;5010515;28;21153;-67
2023/05/31 09:57:46;;;;;;;6.40;3.20;;;25.90;37.50;;;;;;5010303;28;20450;-67
2023/05/31 10:00:16;;;;;;;7.63;3.30;;;26.30;39.30;;;;;;5010194;28;20457;-67
2023/05/31 10:02:45;;;;;;;3.23;2.80;;;26.90;37.90;;;;;;5009826;28;20445;-67
2023/05/31 10:05:15;;;;;;;5.03;3.23;;;27.60;34.00;;;;;;5010080;28;20874;-67
2023/05/31 10:07:44;;;;;;;3.83;2.70;;;27.60;34.20;;;;;;5009796;28;20473;-67
2023/05/31 10:10:13;;;;;;;6.43;3.07;;;27.10;33.60;;;;;;5009918;28;20450;-67
2023/05/31 10:12:50;;;;;;;3.10;2.80;;;27.40;35.60;;;;;;5011248;28;20537;-68
2023/05/31 10:15:20;;;;;;;4.30;2.33;;;28.20;35.00;;;;;;5014161;28;20444;-67
2023/05/31 10:17:56;;;;;;;3.10;2.40;;;28.30;34.20;;;;;;5013834;28;20445;-67
2023/05/31 10:20:30;;;;;;;5.90;2.93;;;28.40;34.60;;;;;;5014281;28;20461;-67
2023/05/31 10:23:02;;;;;;;6.23;3.07;;;28.90;34.60;;;;;;5013549;28;20440;-68
2023/05/31 10:25:36;;;;;;;3.50;3.00;;;29.30;34.10;;;;;;5013754;28;20446;-67
2023/05/31 10:28:12;;;;;;;6.63;3.10;;;29.40;31.30;;;;;;5014024;28;20433;-67
2023/05/31 10:30:41;;;;;;;3.60;2.70;;;29.20;30.00;;;;;;5013711;28;20448;-67
2023/05/31 10:33:15;;;;;;;3.00;2.50;;;28.80;32.30;;;;;;5013676;28;20444;-68
2023/05/31 10:35:45;;;;;;;4.63;2.80;;;29.10;31.30;;;;;;5013690;28;20442;-68
2023/05/31 10:38:18;;;;;;;4.80;2.77;;;29.30;31.90;;;;;;5013422;28;20532;-67
2023/05/31 10:40:53;;;;;;;3.23;2.63;;;29.50;33.10;;;;;;5013573;28;20464;-68
2023/05/31 10:43:30;;;;;;;4.80;2.63;;;29.70;30.20;;;;;;5013607;28;20460;-68
2023/05/31 10:46:03;;;;;;;3.17;2.10;;;29.50;31.20;;;;;;5013859;28;20500;-68
2023/05/31 10:48:41;;;;;;;4.07;2.60;;;29.60;30.00;;;;;;5013629;28;20462;-68
2023/05/31 10:51:10;;;;;;;4.93;2.60;;;29.70;31.90;;;;;;5013762;28;20802;-68
2023/05/31 10:53:40;;;;;;;4.27;2.33;;;29.90;32.40;;;;;;5013520;28;21013;-67
2023/05/31 10:56:10;;;;;;;3.30;2.60;;;30.20;30.80;;;;;;5013648;28;20490;-67
2023/05/31 10:58:41;;;;;;;4.60;3.10;;;30.20;29.70;;;;;;5013417;28;20485;-67
2023/05/31 11:01:13;;;;;;;4.30;3.03;;;30.30;29.30;;;;;;5013351;28;21015;-67
2023/05/31 11:03:48;;;;;;;3.57;3.23;;;30.10;32.00;;;;;;5012773;28;20452;-67
2023/05/31 11:06:18;;;;;;;6.20;2.50;;;29.90;29.50;;;;;;5013497;28;20528;-68
2023/05/31 11:08:59;;;;;;;5.70;2.43;;;29.80;29.50;;;;;;5012970;28;21014;-67
2023/05/31 11:11:29;;;;;;;4.37;3.77;;;30.00;30.30;;;;;;5013394;28;20449;-67
2023/05/31 11:14:00;;;;;;;3.80;2.60;;;29.80;28.40;;;;;;5013246;28;20444;-67
2023/05/31 11:16:31;;;;;;;4.70;3.33;;;29.50;29.00;;;;;;5013473;28;20476;-67
2023/05/31 11:19:06;;;;;;;5.00;2.60;;;28.80;29.60;;;;;;5013418;28;20821;-66
2023/05/31 11:21:47;;;;;;;4.80;3.30;;;28.90;29.20;;;;;;5013088;28;20449;-67
2023/05/31 11:24:29;;;;;;;3.33;2.40;;;29.10;28.00;;;;;;5011352;28;20992;-68
2023/05/31 11:26:59;;;;;;;4.50;2.80;;;29.00;30.50;;;;;;5012771;28;20524;-68
2023/05/31 11:29:58;;;;;;;5.00;2.77;;;29.70;30.30;;;;;;5013130;28;20540;-68
2023/05/31 11:32:58;;;;;;;4.40;2.60;;;30.20;30.20;;;;;;5012445;28;21018;-68
2023/05/31 11:35:26;;;;;;;3.13;2.33;;;31.00;30.00;;;;;;5012616;28;20461;-68
2023/05/31 11:38:01;;;;;;;4.77;2.90;;;31.60;28.60;;;;;;5012594;28;20835;-68
2023/05/31 11:40:31;;;;;;;5.50;2.50;;;32.10;29.00;;;;;;5012543;28;21041;-66
2023/05/31 11:43:11;;;;;;;4.00;2.40;;;31.70;29.00;;;;;;5012416;28;20529;-67
2023/05/31 11:45:47;;;;;;;3.00;2.30;;;31.40;28.60;;;;;;5012304;28;20448;-67
2023/05/31 11:48:30;;;;;;;4.23;2.63;;;31.60;28.80;;;;;;5012290;28;20461;-67
2023/05/31 11:50:58;;;;;;;3.40;2.47;;;32.10;26.80;;;;;;5012225;28;21358;-67
2023/05/31 11:53:28;;;;;;;3.60;2.33;;;32.50;28.90;;;;;;5011993;28;20945;-67
2023/05/31 11:55:58;;;;;;;4.93;2.70;;;32.80;28.40;;;;;;5012095;28;21047;-66
2023/05/31 11:58:27;;;;;;;3.80;2.97;;;32.90;26.70;;;;;;5012423;28;20477;-67
2023/05/31 12:01:01;;;;;;;3.20;2.40;;;32.30;26.70;;;;;;5012001;28;20826;-67
2023/05/31 12:03:30;;;;;;;2.63;2.00;;;32.30;26.30;;;;;;5011799;28;20879;-67
2023/05/31 12:06:00;;;;;;;3.50;2.37;;;32.40;26.80;;;;;;5011824;28;21007;-67
2023/05/31 12:08:28;;;;;;;3.60;2.70;;;32.70;26.20;;;;;;5011818;28;20558;-67
2023/05/31 12:11:03;;;;;;;2.40;1.90;;;33.20;26.80;;;;;;5012079;28;20464;-67
2023/05/31 12:13:31;;;;;;;3.57;2.23;;;33.30;27.00;;;;;;5011677;28;20456;-67
2023/05/31 12:16:01;;;;;;;4.10;2.60;;;33.40;25.70;;;;;;5011809;28;20488;-67
2023/05/31 12:18:30;;;;;;;3.40;2.17;;;33.70;25.80;;;;;;5011680;28;20462;-67
2023/05/31 12:20:58;;;;;;;5.03;2.43;;;33.80;26.10;;;;;;5011437;28;20996;-67
2023/05/31 12:23:27;;;;;;;2.73;2.03;;;34.00;25.60;;;;;;5011415;28;21163;-67
2023/05/31 12:25:59;;;;;;;3.73;2.33;;;34.20;26.30;;;;;;5011607;28;20936;-67
2023/05/31 12:28:28;;;;;;;5.40;2.60;;;33.90;24.30;;;;;;5011907;28;20891;-67
2023/05/31 12:30:56;;;;;;;3.13;2.17;;;33.70;23.20;;;;;;5012569;28;20573;-67
2023/05/31 12:33:26;;;;;;;5.20;2.23;;;33.80;25.70;;;;;;5011180;28;20532;-67
2023/05/31 12:35:56;;;;;;;6.87;2.23;;;34.30;23.30;;;;;;5011473;28;20544;-67
2023/05/31 12:38:28;;;;;;;7.20;2.87;;;34.30;24.00;;;;;;5011320;28;20477;-67
2023/05/31 12:40:56;;;;;;;3.20;2.53;;;34.40;23.70;;;;;;5011329;28;20482;-68
2023/05/31 12:43:25;;;;;;;5.53;2.03;;;34.70;24.30;;;;;;5010912;28;21039;-68
2023/05/31 12:45:53;;;;;;;6.40;2.47;;;35.30;24.30;;;;;;5011222;28;20865;-67
2023/05/31 12:48:24;;;;;;;3.27;2.53;;;35.40;24.90;;;;;;5011404;28;20497;-68
2023/05/31 12:50:53;;;;;;;4.10;2.30;;;35.10;24.00;;;;;;5011270;28;20442;-68
2023/05/31 12:53:26;;;;;;;3.40;2.23;;;32.50;21.80;;;;;;5010945;28;20496;-68
2023/05/31 12:55:54;;;;;;;2.27;2.07;;;32.00;26.80;;;;;;5011015;28;21067;-67
2023/05/31 12:58:22;;;;;;;3.20;2.13;;;32.50;23.70;;;;;;5011059;28;20842;-67
2023/05/31 13:00:51;;;;;;;6.90;3.30;;;32.90;25.90;;;;;;5010660;28;20516;-67